sensor_id;sensor_type;location;lat;lon;timestamp;P1;durP1;ratioP1;P2;durP2;ratioP2
59468;SDS011;45277;52.768;18.262;2023-07-02T00:00:00;11.95;;;6.90;;
59468;SDS011;45277;52.768;18.262;2023-07-02T00:01:32;13.30;;;6.97;;
59468;SDS011;45277;52.768;18.262;2023-07-02T00:03:04;10.63;;;6.50;;
59468;SDS011;45277;52.768;18.262;2023-07-02T00:04:35;9.82;;;6.50;;
59468;SDS011;45277;52.768;18.262;2023-07-02T00:06:07;10.45;;;6.28;;
59468;SDS011;45277;52.768;18.262;2023-07-02T00:07:38;8.63;;;6.22;;
59468;SDS011;45277;52.768;18.262;2023-07-02T00:09:10;12.95;;;6.10;;
59468;SDS011;45277;52.768;18.262;2023-07-02T00:10:43;12.15;;;6.25;;
59468;SDS011;45277;52.768;18.262;2023-07-02T00:12:14;8.68;;;6.20;;
59468;SDS011;45277;52.768;18.262;2023-07-02T00:13:45;10.43;;;6.68;;
59468;SDS011;45277;52.768;18.262;2023-07-02T00:15:17;8.27;;;6.15;;
59468;SDS011;45277;52.768;18.262;2023-07-02T00:16:49;12.10;;;6.40;;
59468;SDS011;45277;52.768;18.262;2023-07-02T00:18:20;12.77;;;6.65;;
59468;SDS011;45277;52.768;18.262;2023-07-02T00:19:52;11.35;;;6.88;;
59468;SDS011;45277;52.768;18.262;2023-07-02T00:21:23;16.67;;;6.80;;
59468;SDS011;45277;52.768;18.262;2023-07-02T00:22:58;9.00;;;6.45;;
59468;SDS011;45277;52.768;18.262;2023-07-02T00:24:31;10.65;;;6.60;;
59468;SDS011;45277;52.768;18.262;2023-07-02T00:26:02;8.43;;;6.43;;
59468;SDS011;45277;52.768;18.262;2023-07-02T00:27:34;11.35;;;6.20;;
59468;SDS011;45277;52.768;18.262;2023-07-02T00:29:06;10.25;;;6.65;;
59468;SDS011;45277;52.768;18.262;2023-07-02T00:30:38;9.32;;;5.55;;
59468;SDS011;45277;52.768;18.262;2023-07-02T00:32:09;9.73;;;5.97;;
59468;SDS011;45277;52.768;18.262;2023-07-02T00:33:41;8.18;;;6.00;;
59468;SDS011;45277;52.768;18.262;2023-07-02T00:35:12;9.23;;;5.25;;
59468;SDS011;45277;52.768;18.262;2023-07-02T00:36:44;6.10;;;5.13;;
59468;SDS011;45277;52.768;18.262;2023-07-02T00:38:15;9.68;;;6.22;;
59468;SDS011;45277;52.768;18.262;2023-07-02T00:39:46;8.43;;;5.88;;
59468;SDS011;45277;52.768;18.262;2023-07-02T00:41:18;6.38;;;5.50;;
59468;SDS011;45277;52.768;18.262;2023-07-02T00:42:49;8.20;;;6.10;;
59468;SDS011;45277;52.768;18.262;2023-07-02T00:44:20;7.47;;;5.68;;
59468;SDS011;45277;52.768;18.262;2023-07-02T00:45:51;13.55;;;6.18;;
59468;SDS011;45277;52.768;18.262;2023-07-02T00:47:23;9.25;;;6.63;;
59468;SDS011;45277;52.768;18.262;2023-07-02T00:48:55;8.75;;;6.10;;
59468;SDS011;45277;52.768;18.262;2023-07-02T00:50:26;9.02;;;6.25;;
59468;SDS011;45277;52.768;18.262;2023-07-02T00:51:58;10.80;;;6.28;;
59468;SDS011;45277;52.768;18.262;2023-07-02T00:53:30;10.07;;;6.60;;
59468;SDS011;45277;52.768;18.262;2023-07-02T00:55:03;8.85;;;6.25;;
59468;SDS011;45277;52.768;18.262;2023-07-02T00:56:35;9.75;;;5.88;;
59468;SDS011;45277;52.768;18.262;2023-07-02T00:58:06;7.95;;;6.20;;
59468;SDS011;45277;52.768;18.262;2023-07-02T00:59:38;9.30;;;6.72;;
59468;SDS011;45277;52.768;18.262;2023-07-02T01:01:10;8.05;;;6.28;;
59468;SDS011;45277;52.768;18.262;2023-07-02T01:02:41;8.57;;;6.63;;
59468;SDS011;45277;52.768;18.262;2023-07-02T01:04:18;7.38;;;6.00;;
59468;SDS011;45277;52.768;18.262;2023-07-02T01:05:50;9.95;;;6.70;;
59468;SDS011;45277;52.768;18.262;2023-07-02T01:07:21;8.05;;;5.97;;
59468;SDS011;45277;52.768;18.262;2023-07-02T01:08:56;8.50;;;6.03;;
59468;SDS011;45277;52.768;18.262;2023-07-02T01:10:29;8.65;;;6.53;;
59468;SDS011;45277;52.768;18.262;2023-07-02T01:12:04;10.65;;;6.43;;
59468;SDS011;45277;52.768;18.262;2023-07-02T01:13:39;11.95;;;6.32;;
59468;SDS011;45277;52.768;18.262;2023-07-02T01:15:10;10.77;;;6.50;;
59468;SDS011;45277;52.768;18.262;2023-07-02T01:16:43;8.35;;;6.30;;
59468;SDS011;45277;52.768;18.262;2023-07-02T01:18:14;7.78;;;6.00;;
59468;SDS011;45277;52.768;18.262;2023-07-02T01:19:50;11.20;;;6.47;;
59468;SDS011;45277;52.768;18.262;2023-07-02T01:21:24;11.45;;;6.38;;
59468;SDS011;45277;52.768;18.262;2023-07-02T01:22:57;8.65;;;6.20;;
59468;SDS011;45277;52.768;18.262;2023-07-02T01:24:33;8.55;;;6.10;;
59468;SDS011;45277;52.768;18.262;2023-07-02T01:26:06;8.77;;;6.40;;
59468;SDS011;45277;52.768;18.262;2023-07-02T01:27:37;8.70;;;6.50;;
59468;SDS011;45277;52.768;18.262;2023-07-02T01:29:18;9.93;;;6.15;;
59468;SDS011;45277;52.768;18.262;2023-07-02T01:30:51;11.32;;;6.63;;
59468;SDS011;45277;52.768;18.262;2023-07-02T01:32:22;8.70;;;6.45;;
59468;SDS011;45277;52.768;18.262;2023-07-02T01:33:54;10.75;;;6.30;;
59468;SDS011;45277;52.768;18.262;2023-07-02T01:35:25;8.20;;;6.18;;
59468;SDS011;45277;52.768;18.262;2023-07-02T01:36:56;8.68;;;6.30;;
59468;SDS011;45277;52.768;18.262;2023-07-02T01:38:28;8.60;;;6.30;;
59468;SDS011;45277;52.768;18.262;2023-07-02T01:39:59;8.90;;;5.70;;
59468;SDS011;45277;52.768;18.262;2023-07-02T01:41:44;8.35;;;6.03;;
59468;SDS011;45277;52.768;18.262;2023-07-02T01:43:21;11.20;;;6.35;;
59468;SDS011;45277;52.768;18.262;2023-07-02T01:44:52;8.68;;;6.68;;
59468;SDS011;45277;52.768;18.262;2023-07-02T01:46:23;9.75;;;6.30;;
59468;SDS011;45277;52.768;18.262;2023-07-02T01:47:55;8.43;;;6.45;;
59468;SDS011;45277;52.768;18.262;2023-07-02T01:49:26;8.93;;;6.30;;
59468;SDS011;45277;52.768;18.262;2023-07-02T01:50:57;10.15;;;5.70;;
59468;SDS011;45277;52.768;18.262;2023-07-02T01:52:29;8.43;;;5.82;;
59468;SDS011;45277;52.768;18.262;2023-07-02T01:54:03;7.63;;;5.50;;
59468;SDS011;45277;52.768;18.262;2023-07-02T01:55:34;8.65;;;6.50;;
59468;SDS011;45277;52.768;18.262;2023-07-02T01:57:06;7.05;;;5.68;;
59468;SDS011;45277;52.768;18.262;2023-07-02T01:58:37;9.38;;;5.93;;
59468;SDS011;45277;52.768;18.262;2023-07-02T02:00:09;9.73;;;5.68;;
59468;SDS011;45277;52.768;18.262;2023-07-02T02:01:41;8.52;;;5.60;;
59468;SDS011;45277;52.768;18.262;2023-07-02T02:03:12;9.55;;;5.38;;
59468;SDS011;45277;52.768;18.262;2023-07-02T02:04:43;8.95;;;5.53;;
59468;SDS011;45277;52.768;18.262;2023-07-02T02:06:15;8.35;;;5.43;;
59468;SDS011;45277;52.768;18.262;2023-07-02T02:07:46;6.60;;;4.97;;
59468;SDS011;45277;52.768;18.262;2023-07-02T02:09:17;9.13;;;5.70;;
59468;SDS011;45277;52.768;18.262;2023-07-02T02:10:49;7.88;;;5.13;;
59468;SDS011;45277;52.768;18.262;2023-07-02T02:12:20;8.95;;;4.90;;
59468;SDS011;45277;52.768;18.262;2023-07-02T02:13:52;8.20;;;5.60;;
59468;SDS011;45277;52.768;18.262;2023-07-02T02:15:23;7.55;;;5.30;;
59468;SDS011;45277;52.768;18.262;2023-07-02T02:16:54;8.88;;;5.68;;
59468;SDS011;45277;52.768;18.262;2023-07-02T02:18:26;10.55;;;5.88;;
59468;SDS011;45277;52.768;18.262;2023-07-02T02:19:57;9.80;;;5.30;;
59468;SDS011;45277;52.768;18.262;2023-07-02T02:21:29;12.20;;;5.28;;
59468;SDS011;45277;52.768;18.262;2023-07-02T02:23:00;7.82;;;4.93;;
59468;SDS011;45277;52.768;18.262;2023-07-02T02:24:32;9.38;;;5.45;;
59468;SDS011;45277;52.768;18.262;2023-07-02T02:26:03;7.32;;;5.32;;
59468;SDS011;45277;52.768;18.262;2023-07-02T02:27:34;8.15;;;5.72;;
59468;SDS011;45277;52.768;18.262;2023-07-02T02:29:07;7.43;;;5.13;;
59468;SDS011;45277;52.768;18.262;2023-07-02T02:30:38;7.57;;;5.32;;
59468;SDS011;45277;52.768;18.262;2023-07-02T02:32:10;10.55;;;5.60;;
59468;SDS011;45277;52.768;18.262;2023-07-02T02:33:41;7.80;;;5.47;;
59468;SDS011;45277;52.768;18.262;2023-07-02T02:35:13;8.18;;;5.70;;
59468;SDS011;45277;52.768;18.262;2023-07-02T02:36:44;8.30;;;5.50;;
59468;SDS011;45277;52.768;18.262;2023-07-02T02:38:15;7.07;;;5.47;;
59468;SDS011;45277;52.768;18.262;2023-07-02T02:39:47;7.50;;;5.07;;
59468;SDS011;45277;52.768;18.262;2023-07-02T02:41:18;10.70;;;6.07;;
59468;SDS011;45277;52.768;18.262;2023-07-02T02:42:49;9.20;;;6.05;;
59468;SDS011;45277;52.768;18.262;2023-07-02T02:44:21;9.88;;;6.60;;
59468;SDS011;45277;52.768;18.262;2023-07-02T02:45:52;9.70;;;6.10;;
59468;SDS011;45277;52.768;18.262;2023-07-02T02:47:23;12.82;;;7.50;;
59468;SDS011;45277;52.768;18.262;2023-07-02T02:48:55;9.88;;;7.18;;
59468;SDS011;45277;52.768;18.262;2023-07-02T02:50:26;8.88;;;6.25;;
59468;SDS011;45277;52.768;18.262;2023-07-02T02:51:58;10.13;;;6.65;;
59468;SDS011;45277;52.768;18.262;2023-07-02T02:53:29;10.40;;;6.50;;
59468;SDS011;45277;52.768;18.262;2023-07-02T02:55:00;9.40;;;5.60;;
59468;SDS011;45277;52.768;18.262;2023-07-02T02:56:31;8.05;;;5.57;;
59468;SDS011;45277;52.768;18.262;2023-07-02T02:58:03;7.97;;;5.10;;
59468;SDS011;45277;52.768;18.262;2023-07-02T02:59:34;7.15;;;5.82;;
59468;SDS011;45277;52.768;18.262;2023-07-02T03:01:06;6.00;;;5.00;;
59468;SDS011;45277;52.768;18.262;2023-07-02T03:02:41;8.45;;;5.18;;
59468;SDS011;45277;52.768;18.262;2023-07-02T03:04:12;6.05;;;4.88;;
59468;SDS011;45277;52.768;18.262;2023-07-02T03:05:43;7.93;;;5.45;;
59468;SDS011;45277;52.768;18.262;2023-07-02T03:07:17;5.55;;;4.90;;
59468;SDS011;45277;52.768;18.262;2023-07-02T03:08:48;6.07;;;4.82;;
59468;SDS011;45277;52.768;18.262;2023-07-02T03:10:20;9.13;;;5.97;;
59468;SDS011;45277;52.768;18.262;2023-07-02T03:11:51;8.98;;;5.65;;
59468;SDS011;45277;52.768;18.262;2023-07-02T03:13:22;5.82;;;4.53;;
59468;SDS011;45277;52.768;18.262;2023-07-02T03:14:54;6.40;;;4.70;;
59468;SDS011;45277;52.768;18.262;2023-07-02T03:16:26;7.50;;;5.47;;
59468;SDS011;45277;52.768;18.262;2023-07-02T03:17:57;6.53;;;5.18;;
59468;SDS011;45277;52.768;18.262;2023-07-02T03:19:29;7.75;;;5.30;;
59468;SDS011;45277;52.768;18.262;2023-07-02T03:21:00;8.52;;;4.85;;
59468;SDS011;45277;52.768;18.262;2023-07-02T03:22:31;6.65;;;5.10;;
59468;SDS011;45277;52.768;18.262;2023-07-02T03:24:03;7.45;;;5.22;;
59468;SDS011;45277;52.768;18.262;2023-07-02T03:25:34;6.72;;;4.55;;
59468;SDS011;45277;52.768;18.262;2023-07-02T03:27:06;6.65;;;4.88;;
59468;SDS011;45277;52.768;18.262;2023-07-02T03:28:37;6.00;;;4.72;;
59468;SDS011;45277;52.768;18.262;2023-07-02T03:30:09;6.90;;;4.95;;
59468;SDS011;45277;52.768;18.262;2023-07-02T03:31:40;7.05;;;5.00;;
59468;SDS011;45277;52.768;18.262;2023-07-02T03:33:12;11.07;;;5.40;;
59468;SDS011;45277;52.768;18.262;2023-07-02T03:34:43;6.97;;;5.05;;
59468;SDS011;45277;52.768;18.262;2023-07-02T03:36:14;7.55;;;4.63;;
59468;SDS011;45277;52.768;18.262;2023-07-02T03:37:46;7.00;;;4.70;;
59468;SDS011;45277;52.768;18.262;2023-07-02T03:39:17;8.02;;;4.85;;
59468;SDS011;45277;52.768;18.262;2023-07-02T03:40:48;5.43;;;4.20;;
59468;SDS011;45277;52.768;18.262;2023-07-02T03:42:20;8.57;;;4.40;;
59468;SDS011;45277;52.768;18.262;2023-07-02T03:43:51;7.53;;;4.28;;
59468;SDS011;45277;52.768;18.262;2023-07-02T03:45:22;5.75;;;4.57;;
59468;SDS011;45277;52.768;18.262;2023-07-02T03:46:54;5.55;;;4.40;;
59468;SDS011;45277;52.768;18.262;2023-07-02T03:48:25;6.68;;;4.75;;
59468;SDS011;45277;52.768;18.262;2023-07-02T03:49:56;5.20;;;4.25;;
59468;SDS011;45277;52.768;18.262;2023-07-02T03:51:28;7.47;;;4.40;;
59468;SDS011;45277;52.768;18.262;2023-07-02T03:53:00;4.32;;;3.75;;
59468;SDS011;45277;52.768;18.262;2023-07-02T03:54:31;5.90;;;3.78;;
59468;SDS011;45277;52.768;18.262;2023-07-02T03:56:03;5.25;;;3.58;;
59468;SDS011;45277;52.768;18.262;2023-07-02T03:57:35;5.95;;;3.85;;
59468;SDS011;45277;52.768;18.262;2023-07-02T03:59:06;6.57;;;3.67;;
59468;SDS011;45277;52.768;18.262;2023-07-02T04:00:37;5.45;;;3.47;;
59468;SDS011;45277;52.768;18.262;2023-07-02T04:02:09;4.75;;;3.05;;
59468;SDS011;45277;52.768;18.262;2023-07-02T04:03:42;2.67;;;2.42;;
59468;SDS011;45277;52.768;18.262;2023-07-02T04:05:20;3.75;;;3.05;;
59468;SDS011;45277;52.768;18.262;2023-07-02T04:06:51;8.07;;;3.28;;
59468;SDS011;45277;52.768;18.262;2023-07-02T04:08:23;4.93;;;3.42;;
59468;SDS011;45277;52.768;18.262;2023-07-02T04:09:55;4.00;;;3.00;;
59468;SDS011;45277;52.768;18.262;2023-07-02T04:11:27;5.18;;;2.90;;
59468;SDS011;45277;52.768;18.262;2023-07-02T04:12:58;5.60;;;2.97;;
59468;SDS011;45277;52.768;18.262;2023-07-02T04:14:29;6.05;;;2.97;;
59468;SDS011;45277;52.768;18.262;2023-07-02T04:16:01;3.45;;;2.97;;
59468;SDS011;45277;52.768;18.262;2023-07-02T04:17:32;3.55;;;3.22;;
59468;SDS011;45277;52.768;18.262;2023-07-02T04:19:04;3.50;;;3.00;;
59468;SDS011;45277;52.768;18.262;2023-07-02T04:20:35;4.75;;;2.92;;
59468;SDS011;45277;52.768;18.262;2023-07-02T04:22:09;3.60;;;3.08;;
59468;SDS011;45277;52.768;18.262;2023-07-02T04:23:40;4.28;;;2.65;;
59468;SDS011;45277;52.768;18.262;2023-07-02T04:25:12;4.47;;;3.20;;
59468;SDS011;45277;52.768;18.262;2023-07-02T04:26:46;3.67;;;2.72;;
59468;SDS011;45277;52.768;18.262;2023-07-02T04:28:18;2.92;;;2.50;;
59468;SDS011;45277;52.768;18.262;2023-07-02T04:29:49;5.00;;;3.28;;
59468;SDS011;45277;52.768;18.262;2023-07-02T04:31:21;7.50;;;2.97;;
59468;SDS011;45277;52.768;18.262;2023-07-02T04:32:52;7.32;;;3.00;;
59468;SDS011;45277;52.768;18.262;2023-07-02T04:34:24;3.03;;;2.72;;
59468;SDS011;45277;52.768;18.262;2023-07-02T04:35:55;2.95;;;2.72;;
59468;SDS011;45277;52.768;18.262;2023-07-02T04:37:28;4.90;;;2.90;;
59468;SDS011;45277;52.768;18.262;2023-07-02T04:38:59;3.92;;;3.03;;
59468;SDS011;45277;52.768;18.262;2023-07-02T04:40:30;2.10;;;1.90;;
59468;SDS011;45277;52.768;18.262;2023-07-02T04:42:02;6.60;;;3.22;;
59468;SDS011;45277;52.768;18.262;2023-07-02T04:43:33;2.95;;;2.65;;
59468;SDS011;45277;52.768;18.262;2023-07-02T04:45:05;2.80;;;2.45;;
59468;SDS011;45277;52.768;18.262;2023-07-02T04:46:39;5.30;;;2.80;;
59468;SDS011;45277;52.768;18.262;2023-07-02T04:48:10;4.95;;;2.80;;
59468;SDS011;45277;52.768;18.262;2023-07-02T04:49:43;2.78;;;2.58;;
59468;SDS011;45277;52.768;18.262;2023-07-02T04:51:15;3.30;;;2.10;;
59468;SDS011;45277;52.768;18.262;2023-07-02T04:52:46;3.13;;;2.83;;
59468;SDS011;45277;52.768;18.262;2023-07-02T04:54:18;4.60;;;2.70;;
59468;SDS011;45277;52.768;18.262;2023-07-02T04:55:49;3.55;;;2.88;;
59468;SDS011;45277;52.768;18.262;2023-07-02T04:57:21;2.53;;;2.33;;
59468;SDS011;45277;52.768;18.262;2023-07-02T04:58:52;3.33;;;2.30;;
59468;SDS011;45277;52.768;18.262;2023-07-02T05:00:24;2.63;;;2.40;;
59468;SDS011;45277;52.768;18.262;2023-07-02T05:01:55;4.00;;;2.88;;
59468;SDS011;45277;52.768;18.262;2023-07-02T05:03:26;3.80;;;3.15;;
59468;SDS011;45277;52.768;18.262;2023-07-02T05:04:58;2.30;;;2.10;;
59468;SDS011;45277;52.768;18.262;2023-07-02T05:06:29;2.78;;;2.58;;
59468;SDS011;45277;52.768;18.262;2023-07-02T05:08:00;2.85;;;2.65;;
59468;SDS011;45277;52.768;18.262;2023-07-02T05:09:32;2.33;;;2.13;;
59468;SDS011;45277;52.768;18.262;2023-07-02T05:11:03;3.28;;;2.55;;
59468;SDS011;45277;52.768;18.262;2023-07-02T05:12:35;3.90;;;2.40;;
59468;SDS011;45277;52.768;18.262;2023-07-02T05:14:06;2.80;;;2.53;;
59468;SDS011;45277;52.768;18.262;2023-07-02T05:15:37;3.92;;;2.78;;
59468;SDS011;45277;52.768;18.262;2023-07-02T05:17:09;2.85;;;2.50;;
59468;SDS011;45277;52.768;18.262;2023-07-02T05:18:40;3.05;;;2.25;;
59468;SDS011;45277;52.768;18.262;2023-07-02T05:20:12;3.05;;;2.53;;
59468;SDS011;45277;52.768;18.262;2023-07-02T05:21:43;3.22;;;2.35;;
59468;SDS011;45277;52.768;18.262;2023-07-02T05:23:15;2.50;;;2.30;;
59468;SDS011;45277;52.768;18.262;2023-07-02T05:24:46;2.33;;;2.10;;
59468;SDS011;45277;52.768;18.262;2023-07-02T05:26:18;2.92;;;2.55;;
59468;SDS011;45277;52.768;18.262;2023-07-02T05:27:49;3.15;;;2.80;;
59468;SDS011;45277;52.768;18.262;2023-07-02T05:29:21;2.17;;;2.03;;
59468;SDS011;45277;52.768;18.262;2023-07-02T05:30:52;2.42;;;2.25;;
59468;SDS011;45277;52.768;18.262;2023-07-02T05:32:23;2.70;;;2.50;;
59468;SDS011;45277;52.768;18.262;2023-07-02T05:33:55;2.38;;;2.17;;
59468;SDS011;45277;52.768;18.262;2023-07-02T05:35:26;3.55;;;2.70;;
59468;SDS011;45277;52.768;18.262;2023-07-02T05:36:57;2.00;;;1.90;;
59468;SDS011;45277;52.768;18.262;2023-07-02T05:38:29;2.80;;;2.60;;
59468;SDS011;45277;52.768;18.262;2023-07-02T05:40:00;2.40;;;2.20;;
59468;SDS011;45277;52.768;18.262;2023-07-02T05:41:32;2.35;;;2.15;;
59468;SDS011;45277;52.768;18.262;2023-07-02T05:43:03;2.63;;;2.42;;
59468;SDS011;45277;52.768;18.262;2023-07-02T05:44:35;3.33;;;2.80;;
59468;SDS011;45277;52.768;18.262;2023-07-02T05:46:06;5.03;;;2.92;;
59468;SDS011;45277;52.768;18.262;2023-07-02T05:47:38;4.05;;;3.30;;
59468;SDS011;45277;52.768;18.262;2023-07-02T05:49:09;10.18;;;4.75;;
59468;SDS011;45277;52.768;18.262;2023-07-02T05:50:41;13.55;;;7.13;;
59468;SDS011;45277;52.768;18.262;2023-07-02T05:52:12;21.05;;;10.95;;
59468;SDS011;45277;52.768;18.262;2023-07-02T05:53:43;22.30;;;12.90;;
59468;SDS011;45277;52.768;18.262;2023-07-02T05:55:15;27.90;;;12.60;;
59468;SDS011;45277;52.768;18.262;2023-07-02T05:56:46;27.30;;;15.25;;
59468;SDS011;45277;52.768;18.262;2023-07-02T05:58:18;25.20;;;15.02;;
59468;SDS011;45277;52.768;18.262;2023-07-02T05:59:50;20.77;;;12.32;;
59468;SDS011;45277;52.768;18.262;2023-07-02T06:01:21;23.50;;;13.50;;
59468;SDS011;45277;52.768;18.262;2023-07-02T06:02:52;20.58;;;13.43;;
59468;SDS011;45277;52.768;18.262;2023-07-02T06:04:24;33.53;;;20.70;;
59468;SDS011;45277;52.768;18.262;2023-07-02T06:05:55;35.30;;;22.92;;
59468;SDS011;45277;52.768;18.262;2023-07-02T06:07:27;28.38;;;16.48;;
59468;SDS011;45277;52.768;18.262;2023-07-02T06:08:59;29.23;;;19.92;;
59468;SDS011;45277;52.768;18.262;2023-07-02T06:10:30;37.60;;;22.20;;
59468;SDS011;45277;52.768;18.262;2023-07-02T06:12:01;30.80;;;22.10;;
59468;SDS011;45277;52.768;18.262;2023-07-02T06:13:33;28.17;;;21.73;;
59468;SDS011;45277;52.768;18.262;2023-07-02T06:15:04;31.17;;;23.52;;
59468;SDS011;45277;52.768;18.262;2023-07-02T06:16:36;35.22;;;22.42;;
59468;SDS011;45277;52.768;18.262;2023-07-02T06:18:08;34.50;;;23.08;;
59468;SDS011;45277;52.768;18.262;2023-07-02T06:19:39;28.38;;;18.80;;
59468;SDS011;45277;52.768;18.262;2023-07-02T06:21:10;30.20;;;21.35;;
59468;SDS011;45277;52.768;18.262;2023-07-02T06:22:42;21.85;;;14.90;;
59468;SDS011;45277;52.768;18.262;2023-07-02T06:24:14;7.28;;;6.25;;
59468;SDS011;45277;52.768;18.262;2023-07-02T06:25:45;11.32;;;9.02;;
59468;SDS011;45277;52.768;18.262;2023-07-02T06:27:17;11.98;;;8.43;;
59468;SDS011;45277;52.768;18.262;2023-07-02T06:28:48;12.05;;;8.77;;
59468;SDS011;45277;52.768;18.262;2023-07-02T06:30:19;11.50;;;8.68;;
59468;SDS011;45277;52.768;18.262;2023-07-02T06:31:52;8.60;;;5.28;;
59468;SDS011;45277;52.768;18.262;2023-07-02T06:33:23;5.32;;;4.65;;
59468;SDS011;45277;52.768;18.262;2023-07-02T06:34:54;3.85;;;3.22;;
59468;SDS011;45277;52.768;18.262;2023-07-02T06:36:26;5.40;;;3.42;;
59468;SDS011;45277;52.768;18.262;2023-07-02T06:37:57;4.25;;;3.00;;
59468;SDS011;45277;52.768;18.262;2023-07-02T06:39:29;3.67;;;2.90;;
59468;SDS011;45277;52.768;18.262;2023-07-02T06:41:00;7.40;;;3.70;;
59468;SDS011;45277;52.768;18.262;2023-07-02T06:42:32;5.55;;;4.80;;
59468;SDS011;45277;52.768;18.262;2023-07-02T06:44:03;6.80;;;4.70;;
59468;SDS011;45277;52.768;18.262;2023-07-02T06:45:35;4.45;;;4.03;;
59468;SDS011;45277;52.768;18.262;2023-07-02T06:47:06;9.50;;;6.60;;
59468;SDS011;45277;52.768;18.262;2023-07-02T06:48:38;4.60;;;4.20;;
59468;SDS011;45277;52.768;18.262;2023-07-02T06:50:10;9.50;;;7.28;;
59468;SDS011;45277;52.768;18.262;2023-07-02T06:51:41;10.77;;;7.30;;
59468;SDS011;45277;52.768;18.262;2023-07-02T06:53:13;2.90;;;2.70;;
59468;SDS011;45277;52.768;18.262;2023-07-02T06:54:45;3.05;;;2.75;;
59468;SDS011;45277;52.768;18.262;2023-07-02T06:56:16;4.45;;;2.53;;
59468;SDS011;45277;52.768;18.262;2023-07-02T06:57:48;4.70;;;2.80;;
59468;SDS011;45277;52.768;18.262;2023-07-02T06:59:20;3.95;;;2.97;;
59468;SDS011;45277;52.768;18.262;2023-07-02T07:00:52;4.97;;;3.72;;
59468;SDS011;45277;52.768;18.262;2023-07-02T07:02:24;5.85;;;4.00;;
59468;SDS011;45277;52.768;18.262;2023-07-02T07:03:55;6.32;;;3.50;;
59468;SDS011;45277;52.768;18.262;2023-07-02T07:05:27;9.30;;;5.18;;
59468;SDS011;45277;52.768;18.262;2023-07-02T07:06:58;9.93;;;6.40;;
59468;SDS011;45277;52.768;18.262;2023-07-02T07:08:30;10.35;;;7.75;;
59468;SDS011;45277;52.768;18.262;2023-07-02T07:10:01;10.25;;;6.82;;
59468;SDS011;45277;52.768;18.262;2023-07-02T07:11:34;5.18;;;3.72;;
59468;SDS011;45277;52.768;18.262;2023-07-02T07:13:06;7.28;;;5.78;;
59468;SDS011;45277;52.768;18.262;2023-07-02T07:14:37;5.70;;;3.42;;
59468;SDS011;45277;52.768;18.262;2023-07-02T07:16:09;4.80;;;4.40;;
59468;SDS011;45277;52.768;18.262;2023-07-02T07:17:41;4.78;;;4.13;;
59468;SDS011;45277;52.768;18.262;2023-07-02T07:19:12;7.40;;;5.60;;
59468;SDS011;45277;52.768;18.262;2023-07-02T07:20:43;7.47;;;6.28;;
59468;SDS011;45277;52.768;18.262;2023-07-02T07:22:15;8.55;;;7.10;;
59468;SDS011;45277;52.768;18.262;2023-07-02T07:23:47;4.68;;;4.03;;
59468;SDS011;45277;52.768;18.262;2023-07-02T07:25:18;5.60;;;3.13;;
59468;SDS011;45277;52.768;18.262;2023-07-02T07:26:50;4.28;;;3.13;;
59468;SDS011;45277;52.768;18.262;2023-07-02T07:28:21;4.53;;;3.25;;
59468;SDS011;45277;52.768;18.262;2023-07-02T07:29:52;4.22;;;2.97;;
59468;SDS011;45277;52.768;18.262;2023-07-02T07:31:24;2.00;;;1.88;;
59468;SDS011;45277;52.768;18.262;2023-07-02T07:32:56;2.25;;;2.05;;
59468;SDS011;45277;52.768;18.262;2023-07-02T07:34:27;3.30;;;3.00;;
59468;SDS011;45277;52.768;18.262;2023-07-02T07:35:59;5.00;;;3.38;;
59468;SDS011;45277;52.768;18.262;2023-07-02T07:37:30;6.55;;;4.50;;
59468;SDS011;45277;52.768;18.262;2023-07-02T07:39:02;3.78;;;2.55;;
59468;SDS011;45277;52.768;18.262;2023-07-02T07:40:34;3.35;;;3.00;;
59468;SDS011;45277;52.768;18.262;2023-07-02T07:42:06;2.63;;;2.17;;
59468;SDS011;45277;52.768;18.262;2023-07-02T07:43:37;2.38;;;2.03;;
59468;SDS011;45277;52.768;18.262;2023-07-02T07:45:09;1.83;;;1.73;;
59468;SDS011;45277;52.768;18.262;2023-07-02T07:46:41;2.45;;;2.25;;
59468;SDS011;45277;52.768;18.262;2023-07-02T07:48:13;2.08;;;1.92;;
59468;SDS011;45277;52.768;18.262;2023-07-02T07:49:44;2.35;;;1.80;;
59468;SDS011;45277;52.768;18.262;2023-07-02T07:51:17;2.67;;;2.40;;
59468;SDS011;45277;52.768;18.262;2023-07-02T07:52:48;1.77;;;1.67;;
59468;SDS011;45277;52.768;18.262;2023-07-02T07:54:20;1.63;;;1.52;;
59468;SDS011;45277;52.768;18.262;2023-07-02T07:55:52;3.40;;;2.30;;
59468;SDS011;45277;52.768;18.262;2023-07-02T07:57:24;1.65;;;1.55;;
59468;SDS011;45277;52.768;18.262;2023-07-02T07:58:56;2.20;;;2.00;;
59468;SDS011;45277;52.768;18.262;2023-07-02T08:00:28;2.10;;;2.00;;
59468;SDS011;45277;52.768;18.262;2023-07-02T08:01:59;3.05;;;2.10;;
59468;SDS011;45277;52.768;18.262;2023-07-02T08:03:31;4.40;;;2.25;;
59468;SDS011;45277;52.768;18.262;2023-07-02T08:05:02;1.38;;;1.27;;
59468;SDS011;45277;52.768;18.262;2023-07-02T08:06:35;4.18;;;1.92;;
59468;SDS011;45277;52.768;18.262;2023-07-02T08:08:07;1.65;;;1.55;;
59468;SDS011;45277;52.768;18.262;2023-07-02T08:09:39;2.05;;;1.80;;
59468;SDS011;45277;52.768;18.262;2023-07-02T08:11:10;3.40;;;1.90;;
59468;SDS011;45277;52.768;18.262;2023-07-02T08:12:43;1.83;;;1.73;;
59468;SDS011;45277;52.768;18.262;2023-07-02T08:14:14;2.00;;;1.90;;
59468;SDS011;45277;52.768;18.262;2023-07-02T08:15:47;2.00;;;1.83;;
59468;SDS011;45277;52.768;18.262;2023-07-02T08:17:19;2.20;;;1.88;;
59468;SDS011;45277;52.768;18.262;2023-07-02T08:18:53;1.67;;;1.58;;
59468;SDS011;45277;52.768;18.262;2023-07-02T08:20:25;5.50;;;2.08;;
59468;SDS011;45277;52.768;18.262;2023-07-02T08:21:57;1.95;;;1.83;;
59468;SDS011;45277;52.768;18.262;2023-07-02T08:23:28;1.60;;;1.50;;
59468;SDS011;45277;52.768;18.262;2023-07-02T08:25:00;1.73;;;1.63;;
59468;SDS011;45277;52.768;18.262;2023-07-02T08:26:32;2.25;;;2.00;;
59468;SDS011;45277;52.768;18.262;2023-07-02T08:28:03;2.28;;;1.95;;
59468;SDS011;45277;52.768;18.262;2023-07-02T08:29:35;4.15;;;2.17;;
59468;SDS011;45277;52.768;18.262;2023-07-02T08:31:07;1.63;;;1.52;;
59468;SDS011;45277;52.768;18.262;2023-07-02T08:32:38;2.67;;;1.60;;
59468;SDS011;45277;52.768;18.262;2023-07-02T08:34:09;2.50;;;1.90;;
59468;SDS011;45277;52.768;18.262;2023-07-02T08:35:41;2.40;;;1.80;;
59468;SDS011;45277;52.768;18.262;2023-07-02T08:37:13;4.68;;;2.15;;
59468;SDS011;45277;52.768;18.262;2023-07-02T08:38:44;1.95;;;1.85;;
59468;SDS011;45277;52.768;18.262;2023-07-02T08:40:16;1.60;;;1.50;;
59468;SDS011;45277;52.768;18.262;2023-07-02T08:41:48;1.83;;;1.73;;
59468;SDS011;45277;52.768;18.262;2023-07-02T08:43:20;2.60;;;1.90;;
59468;SDS011;45277;52.768;18.262;2023-07-02T08:44:53;2.00;;;1.90;;
59468;SDS011;45277;52.768;18.262;2023-07-02T08:46:25;4.13;;;1.67;;
59468;SDS011;45277;52.768;18.262;2023-07-02T08:47:57;2.25;;;2.05;;
59468;SDS011;45277;52.768;18.262;2023-07-02T08:49:29;2.13;;;1.90;;
59468;SDS011;45277;52.768;18.262;2023-07-02T08:51:01;1.65;;;1.55;;
59468;SDS011;45277;52.768;18.262;2023-07-02T08:52:33;1.60;;;1.50;;
59468;SDS011;45277;52.768;18.262;2023-07-02T08:54:05;5.10;;;1.98;;
59468;SDS011;45277;52.768;18.262;2023-07-02T08:55:36;1.40;;;1.40;;
59468;SDS011;45277;52.768;18.262;2023-07-02T08:57:09;1.63;;;1.52;;
59468;SDS011;45277;52.768;18.262;2023-07-02T08:58:40;1.98;;;1.77;;
59468;SDS011;45277;52.768;18.262;2023-07-02T09:00:12;2.00;;;1.90;;
59468;SDS011;45277;52.768;18.262;2023-07-02T09:01:47;1.88;;;1.67;;